createdAt,value
2018-06-11T00:01:48.630Z,8.70
2018-06-11T00:04:16.849Z,7.95
2018-06-11T00:06:45.033Z,8.30
2018-06-11T00:09:13.309Z,8.30
2018-06-11T00:11:41.524Z,9.83
2018-06-11T00:14:09.890Z,9.00
2018-06-11T00:16:38.158Z,8.60
2018-06-11T00:19:06.357Z,8.65
2018-06-11T00:21:34.572Z,10.35
2018-06-11T00:24:02.774Z,8.20
2018-06-11T00:26:31.030Z,9.25
2018-06-11T00:28:59.281Z,8.35
2018-06-11T00:31:27.481Z,8.48
2018-06-11T00:33:55.719Z,7.92
2018-06-11T00:36:24.005Z,7.90
2018-06-11T00:38:52.262Z,6.85
2018-06-11T00:41:20.509Z,7.33
2018-06-11T00:43:48.727Z,7.55
2018-06-11T00:46:16.966Z,8.20
2018-06-11T00:48:45.177Z,8.00
2018-06-11T00:51:13.449Z,9.45
2018-06-11T00:53:41.734Z,9.07
2018-06-11T00:56:10.342Z,8.78
2018-06-11T00:58:38.645Z,8.13
2018-06-11T01:01:06.902Z,14.20
2018-06-11T01:03:35.170Z,8.88
2018-06-11T01:06:03.418Z,8.55
2018-06-11T01:08:31.619Z,9.00
2018-06-11T01:10:59.880Z,8.33
2018-06-11T01:13:28.082Z,8.90
2018-06-11T01:15:56.342Z,9.03
2018-06-11T01:18:24.581Z,10.65
2018-06-11T01:20:52.796Z,8.73
2018-06-11T01:23:21.029Z,8.95
2018-06-11T01:25:49.245Z,9.25
2018-06-11T01:28:17.519Z,9.90
2018-06-11T01:30:45.770Z,8.17
2018-06-11T01:33:13.996Z,9.60
2018-06-11T01:35:42.274Z,9.70
2018-06-11T01:38:10.466Z,8.48
2018-06-11T01:40:38.718Z,8.00
2018-06-11T01:43:06.957Z,7.77
2018-06-11T01:45:35.161Z,6.95
2018-06-11T01:48:03.397Z,8.30
2018-06-11T01:50:31.596Z,9.85
2018-06-11T01:52:59.816Z,8.15
2018-06-11T01:55:28.051Z,8.33
2018-06-11T01:57:56.016Z,9.00
2018-06-11T02:00:24.240Z,7.08
2018-06-11T02:02:52.434Z,7.50
2018-06-11T02:05:20.690Z,8.23
2018-06-11T02:07:48.925Z,8.53
2018-06-11T02:10:17.161Z,7.10
2018-06-11T02:12:45.393Z,8.45
2018-06-11T02:15:13.633Z,7.80
2018-06-11T02:17:41.930Z,9.38
2018-06-11T02:20:10.221Z,10.20
2018-06-11T02:22:38.447Z,8.35
2018-06-11T02:25:06.737Z,8.80
2018-06-11T02:27:34.947Z,8.10
2018-06-11T02:30:03.284Z,7.80
2018-06-11T02:32:31.545Z,7.87
2018-06-11T02:34:59.742Z,8.03
2018-06-11T02:37:27.985Z,7.17
2018-06-11T02:39:56.194Z,9.05
2018-06-11T02:42:24.223Z,8.43
2018-06-11T02:44:52.477Z,7.67
2018-06-11T02:47:20.694Z,7.43
2018-06-11T02:49:48.917Z,7.22
2018-06-11T02:52:17.121Z,7.47
2018-06-11T02:54:45.386Z,7.92
2018-06-11T02:57:13.683Z,7.78
2018-06-11T02:59:41.875Z,7.53
2018-06-11T03:02:10.111Z,6.90
2018-06-11T03:04:38.302Z,6.90
2018-06-11T03:07:06.549Z,6.80
2018-06-11T03:09:34.798Z,7.47
2018-06-11T03:12:02.998Z,11.48
2018-06-11T03:14:31.221Z,7.00
2018-06-11T03:16:59.434Z,7.37
2018-06-11T03:19:27.685Z,7.65
2018-06-11T03:21:55.913Z,7.75
2018-06-11T03:24:24.162Z,9.80
2018-06-11T03:26:52.422Z,8.30
2018-06-11T03:29:20.641Z,11.20
2018-06-11T03:31:48.873Z,11.20
2018-06-11T03:34:17.122Z,9.15
2018-06-11T03:36:45.314Z,6.42
2018-06-11T03:39:13.569Z,8.68
2018-06-11T03:41:41.777Z,7.30
2018-06-11T03:44:10.022Z,8.63
2018-06-11T03:46:38.249Z,7.37
2018-06-11T03:49:06.448Z,7.00
2018-06-11T03:51:34.677Z,9.45
2018-06-11T03:54:02.995Z,5.92
2018-06-11T03:56:31.250Z,6.28
2018-06-11T03:58:59.481Z,6.15
2018-06-11T04:01:27.727Z,6.37
2018-06-11T04:03:55.976Z,6.97
2018-06-11T04:06:24.181Z,6.83
2018-06-11T04:08:52.409Z,6.40
2018-06-11T04:11:20.644Z,6.80
2018-06-11T04:13:48.879Z,6.42
2018-06-11T04:16:19.041Z,6.28
2018-06-11T04:18:47.257Z,8.60
2018-06-11T04:21:15.506Z,7.25
2018-06-11T04:23:43.767Z,7.55
2018-06-11T04:26:11.967Z,7.20
2018-06-11T04:28:40.209Z,6.53
2018-06-11T04:31:08.444Z,7.17
2018-06-11T04:33:36.683Z,7.20
2018-06-11T04:36:04.923Z,6.65
2018-06-11T04:38:33.127Z,7.22
2018-06-11T04:41:01.366Z,5.78
2018-06-11T04:43:29.607Z,7.17
2018-06-11T04:45:57.859Z,5.20
2018-06-11T04:48:25.848Z,6.60
2018-06-11T04:50:53.802Z,6.05
2018-06-11T04:53:22.029Z,7.60
2018-06-11T04:55:50.249Z,7.03
2018-06-11T04:58:18.501Z,6.33
2018-06-11T05:00:46.870Z,6.58
2018-06-11T05:03:15.084Z,5.97
2018-06-11T05:05:43.316Z,5.78
2018-06-11T05:08:11.528Z,6.25
2018-06-11T05:10:39.517Z,5.80
2018-06-11T05:13:07.958Z,6.00
2018-06-11T05:15:36.196Z,8.05
2018-06-11T05:18:04.460Z,5.85
2018-06-11T05:20:32.750Z,8.35
2018-06-11T05:23:01.081Z,7.25
2018-06-11T05:25:29.335Z,7.03
2018-06-11T05:27:57.554Z,6.03
2018-06-11T05:30:25.811Z,6.80
2018-06-11T05:32:53.761Z,6.70
2018-06-11T05:35:22.000Z,7.50
2018-06-11T05:37:50.381Z,5.60
2018-06-11T05:40:18.663Z,6.22
2018-06-11T05:42:47.042Z,5.70
2018-06-11T05:45:15.299Z,6.75
2018-06-11T05:47:43.561Z,6.47
2018-06-11T05:50:11.793Z,6.53
2018-06-11T05:52:39.981Z,6.60
2018-06-11T05:55:08.228Z,6.50
2018-06-11T05:57:36.436Z,6.00
2018-06-11T06:00:05.258Z,6.75
2018-06-11T06:02:34.118Z,6.50
2018-06-11T06:05:02.336Z,6.60
2018-06-11T06:07:30.577Z,7.70
2018-06-11T06:09:58.823Z,6.70
2018-06-11T06:12:27.103Z,6.58
2018-06-11T06:14:55.364Z,8.60
2018-06-11T06:17:23.586Z,6.97
2018-06-11T06:19:51.819Z,7.00
2018-06-11T06:22:20.059Z,6.30
2018-06-11T06:24:48.347Z,6.37
2018-06-11T06:27:16.584Z,7.12
2018-06-11T06:29:44.815Z,7.83
2018-06-11T06:32:13.063Z,7.30
2018-06-11T06:34:41.342Z,7.50
2018-06-11T06:37:09.598Z,6.80
2018-06-11T06:39:37.842Z,7.10
2018-06-11T06:42:06.134Z,7.20
2018-06-11T06:44:34.402Z,8.00
2018-06-11T06:47:03.214Z,6.60
2018-06-11T06:49:31.479Z,6.90
2018-06-11T06:51:59.731Z,6.67
2018-06-11T06:54:27.921Z,6.53
2018-06-11T06:56:56.194Z,6.87
2018-06-11T06:59:24.414Z,7.35
2018-06-11T07:01:52.748Z,7.00
2018-06-11T07:04:21.096Z,6.60
2018-06-11T07:06:49.290Z,6.55
2018-06-11T07:09:17.559Z,9.18
2018-06-11T07:11:45.762Z,6.45
2018-06-11T07:14:14.015Z,6.50
2018-06-11T07:16:42.273Z,6.50
2018-06-11T07:19:10.475Z,6.33
2018-06-11T07:21:38.730Z,6.50
2018-06-11T07:24:07.058Z,7.17
2018-06-11T07:26:35.360Z,6.92
2018-06-11T07:29:03.699Z,7.00
2018-06-11T07:31:31.943Z,7.33
2018-06-11T07:34:00.530Z,5.97
2018-06-11T07:36:28.765Z,11.78
2018-06-11T07:38:57.005Z,6.50
2018-06-11T07:41:25.248Z,6.10
2018-06-11T07:43:53.452Z,6.50
2018-06-11T07:46:21.709Z,6.90
2018-06-11T07:48:49.906Z,7.12
2018-06-11T07:51:18.200Z,7.28
2018-06-11T07:53:46.477Z,7.85
2018-06-11T07:56:14.740Z,6.50
2018-06-11T07:58:42.993Z,6.62
2018-06-11T08:01:11.194Z,6.80
2018-06-11T08:03:39.468Z,6.85
2018-06-11T08:06:07.681Z,6.00
2018-06-11T08:08:35.927Z,6.17
2018-06-11T08:11:04.164Z,6.57
2018-06-11T08:13:32.405Z,5.87
2018-06-11T08:16:00.623Z,5.60
2018-06-11T08:18:28.836Z,5.25
2018-06-11T08:20:57.122Z,5.30
2018-06-11T08:23:25.390Z,6.20
2018-06-11T08:25:53.625Z,5.25
2018-06-11T08:28:21.950Z,5.97
2018-06-11T08:30:50.229Z,6.05
2018-06-11T08:33:18.509Z,5.60
2018-06-11T08:35:46.774Z,5.17
2018-06-11T08:38:14.952Z,5.72
2018-06-11T08:40:43.194Z,5.15
2018-06-11T08:43:11.480Z,5.10
2018-06-11T08:45:39.721Z,4.92
2018-06-11T08:48:07.962Z,5.10
2018-06-11T08:50:36.166Z,4.50
2018-06-11T08:53:04.582Z,4.65
2018-06-11T08:55:32.867Z,4.72
2018-06-11T08:58:01.122Z,6.15
2018-06-11T09:00:29.417Z,5.30
2018-06-11T09:02:57.615Z,4.62
2018-06-11T09:05:25.893Z,4.40
2018-06-11T09:07:54.093Z,4.25
2018-06-11T09:10:22.377Z,4.00
2018-06-11T09:12:50.629Z,4.05
2018-06-11T09:15:18.854Z,4.70
2018-06-11T09:17:47.097Z,4.40
2018-06-11T09:20:15.301Z,6.03
2018-06-11T09:22:45.749Z,4.60
2018-06-11T09:25:14.093Z,5.05
2018-06-11T09:27:42.358Z,5.00
2018-06-11T09:30:10.646Z,5.30
2018-06-11T09:32:38.971Z,4.80
2018-06-11T09:35:06.989Z,4.33
2018-06-11T09:37:35.589Z,5.60
2018-06-11T09:40:04.353Z,5.42
2018-06-11T09:42:32.638Z,6.92
2018-06-11T09:45:00.882Z,7.20
2018-06-11T09:47:29.212Z,7.17
2018-06-11T09:49:57.462Z,7.20
2018-06-11T09:52:25.759Z,7.12
2018-06-11T09:54:53.994Z,10.10
2018-06-11T09:57:22.213Z,9.55
2018-06-11T09:59:50.438Z,9.10
2018-06-11T10:02:18.678Z,9.55
2018-06-11T10:04:46.929Z,6.08
2018-06-11T10:07:15.179Z,5.05
2018-06-11T10:09:43.382Z,9.13
2018-06-11T10:12:11.658Z,13.48
2018-06-11T10:14:39.887Z,9.13
2018-06-11T10:17:08.154Z,12.30
2018-06-11T10:19:36.432Z,6.70
2018-06-11T10:22:04.750Z,9.30
2018-06-11T10:24:33.014Z,12.00
2018-06-11T10:27:01.236Z,12.75
2018-06-11T10:29:29.597Z,9.98
2018-06-11T10:31:57.925Z,14.40
2018-06-11T10:34:26.234Z,14.90
2018-06-11T10:36:54.561Z,15.23
2018-06-11T10:39:22.793Z,19.23
2018-06-11T10:41:51.007Z,13.65
2018-06-11T10:44:19.254Z,20.97
2018-06-11T10:46:47.455Z,11.50
2018-06-11T10:49:15.703Z,11.18
2018-06-11T10:51:43.916Z,20.30
2018-06-11T10:54:12.140Z,24.15
2018-06-11T10:56:40.390Z,20.85
2018-06-11T10:59:08.605Z,12.40
2018-06-11T11:01:36.864Z,20.15
2018-06-11T11:04:05.134Z,15.18
2018-06-11T11:06:33.414Z,17.57
2018-06-11T11:09:01.746Z,11.20
2018-06-11T11:11:30.464Z,16.10
2018-06-11T11:13:59.199Z,19.15
2018-06-11T11:16:28.359Z,14.93
2018-06-11T11:18:57.071Z,14.40
2018-06-11T11:21:25.778Z,20.88
2018-06-11T11:23:56.091Z,18.00
2018-06-11T11:26:24.355Z,21.57
2018-06-11T11:28:52.597Z,20.10
2018-06-11T11:31:20.943Z,15.55
2018-06-11T11:33:49.187Z,14.58
2018-06-11T11:36:17.962Z,18.12
2018-06-11T11:38:46.696Z,15.35
2018-06-11T11:41:15.406Z,18.05
2018-06-11T11:43:44.150Z,13.65
2018-06-11T11:46:12.853Z,14.95
2018-06-11T11:48:41.721Z,14.58
2018-06-11T11:51:10.575Z,17.70
2018-06-11T11:53:38.747Z,10.75
2018-06-11T11:56:06.984Z,18.35
2018-06-11T11:58:35.231Z,15.48
2018-06-11T12:01:03.498Z,19.67
2018-06-11T12:03:31.744Z,15.80
2018-06-11T12:05:59.963Z,17.27
2018-06-11T12:08:28.196Z,19.57
2018-06-11T12:10:56.404Z,10.60
2018-06-11T12:13:24.693Z,15.60
2018-06-11T12:15:52.962Z,18.50
2018-06-11T12:18:21.214Z,16.15
2018-06-11T12:20:49.497Z,14.03
2018-06-11T12:23:17.741Z,14.93
2018-06-11T12:25:45.992Z,17.42
2018-06-11T12:28:14.290Z,19.45
2018-06-11T12:30:42.506Z,11.00
2018-06-11T12:33:10.760Z,13.05
2018-06-11T12:35:38.971Z,13.85
2018-06-11T12:38:07.313Z,19.52
2018-06-11T12:40:35.569Z,20.82
2018-06-11T12:43:03.812Z,13.53
2018-06-11T12:45:32.066Z,16.87
2018-06-11T12:48:00.319Z,16.62
2018-06-11T12:50:28.589Z,14.07
2018-06-11T12:52:56.868Z,13.48
2018-06-11T12:55:25.134Z,15.35
2018-06-11T12:57:53.395Z,15.60
2018-06-11T13:00:21.649Z,17.13
2018-06-11T13:02:49.895Z,16.37
2018-06-11T13:05:18.169Z,23.20
2018-06-11T13:07:46.405Z,11.93
2018-06-11T13:10:14.698Z,17.42
2018-06-11T13:12:42.977Z,8.83
2018-06-11T13:15:11.243Z,16.93
2018-06-11T13:17:39.547Z,9.10
2018-06-11T13:20:07.782Z,11.07
2018-06-11T13:22:36.071Z,14.70
2018-06-11T13:25:04.404Z,15.45
2018-06-11T13:27:32.668Z,10.82
2018-06-11T13:30:00.924Z,12.53
2018-06-11T13:32:29.162Z,10.55
2018-06-11T13:34:57.460Z,12.58
2018-06-11T13:37:25.766Z,12.20
2018-06-11T13:39:54.082Z,16.80
2018-06-11T13:42:22.448Z,12.98
2018-06-11T13:44:50.705Z,9.90
2018-06-11T13:47:18.995Z,8.33
2018-06-11T13:49:47.214Z,8.70
2018-06-11T13:52:15.513Z,13.30
2018-06-11T13:54:43.786Z,10.10
2018-06-11T13:57:12.036Z,14.18
2018-06-11T13:59:40.341Z,12.60
2018-06-11T14:02:08.582Z,14.20
2018-06-11T14:04:36.886Z,11.05
2018-06-11T14:07:04.961Z,7.97
2018-06-11T14:09:33.207Z,14.55
2018-06-11T14:12:01.483Z,12.30
2018-06-11T14:14:29.707Z,11.70
2018-06-11T14:16:58.000Z,13.05
2018-06-11T14:19:26.270Z,13.25
2018-06-11T14:21:54.546Z,9.38
2018-06-11T14:24:22.809Z,14.10
2018-06-11T14:26:51.076Z,9.40
2018-06-11T14:29:19.373Z,11.48
2018-06-11T14:31:47.630Z,11.50
2018-06-11T14:34:15.881Z,7.90
2018-06-11T14:36:44.205Z,9.18
2018-06-11T14:39:12.457Z,11.00
2018-06-11T14:41:40.733Z,8.38
2018-06-11T14:44:09.013Z,9.87
2018-06-11T14:46:37.274Z,16.05
2018-06-11T14:49:05.561Z,14.30
2018-06-11T14:51:33.808Z,18.82
2018-06-11T14:54:02.092Z,15.20
2018-06-11T14:56:30.362Z,15.03
2018-06-11T14:58:58.610Z,11.83
2018-06-11T15:01:26.882Z,11.10
2018-06-11T15:03:55.125Z,10.63
2018-06-11T15:06:23.399Z,8.58
2018-06-11T15:08:51.680Z,10.23
2018-06-11T15:11:19.879Z,18.80
2018-06-11T15:13:48.129Z,10.68
2018-06-11T15:16:16.367Z,10.20
2018-06-11T15:18:44.643Z,10.82
2018-06-11T15:21:12.897Z,12.58
2018-06-11T15:23:41.122Z,12.73
2018-06-11T15:26:09.395Z,14.23
2018-06-11T15:28:37.653Z,16.00
2018-06-11T15:31:05.913Z,13.28
2018-06-11T15:33:34.129Z,12.33
2018-06-11T15:36:02.375Z,13.00
2018-06-11T15:38:30.668Z,14.05
2018-06-11T15:40:58.910Z,13.95
2018-06-11T15:43:27.173Z,14.03
2018-06-11T15:45:55.391Z,12.40
2018-06-11T15:48:23.732Z,12.83
2018-06-11T15:50:52.009Z,13.60
2018-06-11T15:55:13.103Z,8.25
2018-06-11T15:57:41.299Z,11.70
2018-06-11T16:00:09.546Z,10.72
2018-06-11T16:02:38.253Z,19.90
2018-06-11T16:05:06.535Z,13.62
2018-06-11T16:07:34.758Z,12.80
2018-06-11T16:10:03.046Z,15.40
2018-06-11T16:12:31.284Z,14.53
2018-06-11T16:14:59.588Z,17.48
2018-06-11T16:17:27.867Z,17.27
2018-06-11T16:19:56.119Z,13.08
2018-06-11T16:22:24.350Z,19.15
2018-06-11T16:24:52.677Z,17.52
2018-06-11T16:27:20.916Z,19.87
2018-06-11T16:29:49.154Z,18.95
2018-06-11T16:32:17.422Z,15.55
2018-06-11T16:34:45.641Z,12.98
2018-06-11T16:37:13.885Z,18.57
2018-06-11T16:39:42.170Z,15.07
2018-06-11T16:42:10.391Z,14.65
2018-06-11T16:44:38.635Z,13.70
2018-06-11T16:47:06.640Z,12.65
2018-06-11T16:49:34.861Z,13.72
2018-06-11T16:52:03.107Z,11.43
2018-06-11T16:54:31.353Z,8.98
2018-06-11T16:56:59.562Z,11.75
2018-06-11T16:59:27.854Z,12.58
2018-06-11T17:01:55.806Z,12.80
2018-06-11T17:04:24.095Z,13.95
2018-06-11T17:06:52.362Z,14.60
2018-06-11T17:09:20.606Z,15.53
2018-06-11T17:11:48.877Z,14.90
2018-06-11T17:14:17.132Z,10.75
2018-06-11T17:16:45.450Z,21.48
2018-06-11T17:19:13.717Z,10.98
2018-06-11T17:21:42.004Z,11.30
2018-06-11T17:24:10.256Z,16.40
2018-06-11T17:26:38.540Z,15.78
2018-06-11T17:29:06.786Z,12.50
2018-06-11T17:31:35.146Z,12.28
2018-06-11T17:34:03.446Z,15.00
2018-06-11T17:36:31.782Z,9.40
2018-06-11T17:39:00.114Z,14.45
2018-06-11T17:41:28.419Z,13.75
2018-06-11T17:43:56.657Z,12.60
2018-06-11T17:46:24.926Z,15.20
2018-06-11T17:48:53.194Z,14.87
2018-06-11T17:51:21.535Z,13.72
2018-06-11T17:53:49.788Z,12.23
2018-06-11T17:56:18.036Z,10.45
2018-06-11T17:58:46.328Z,11.53
2018-06-11T18:01:14.563Z,15.00
2018-06-11T18:03:42.823Z,9.00
2018-06-11T18:06:11.114Z,10.88
2018-06-11T18:08:39.093Z,15.55
2018-06-11T18:11:07.390Z,16.57
2018-06-11T18:13:35.610Z,15.08
2018-06-11T18:16:03.885Z,10.68
2018-06-11T18:18:32.129Z,7.67
2018-06-11T18:21:00.611Z,18.77
2018-06-11T18:23:28.885Z,12.53
2018-06-11T18:25:57.119Z,14.80
2018-06-11T18:28:25.389Z,23.55
2018-06-11T18:30:53.729Z,14.50
2018-06-11T18:33:21.989Z,21.40
2018-06-11T18:35:50.315Z,18.32
2018-06-11T18:38:19.115Z,15.90
2018-06-11T18:40:47.405Z,18.00
2018-06-11T18:43:16.509Z,16.48
2018-06-11T18:45:44.778Z,13.80
2018-06-11T18:48:13.063Z,13.35
2018-06-11T18:50:41.318Z,20.60
2018-06-11T18:53:09.653Z,14.65
2018-06-11T18:55:38.853Z,20.60
2018-06-11T18:58:07.117Z,20.65
2018-06-11T19:00:35.414Z,19.07
2018-06-11T19:03:03.729Z,16.02
2018-06-11T19:05:31.961Z,16.23
2018-06-11T19:08:00.664Z,12.93
2018-06-11T19:10:30.601Z,20.75
2018-06-11T19:12:58.828Z,27.48
2018-06-11T19:15:27.409Z,24.13
2018-06-11T19:17:55.649Z,16.93
2018-06-11T19:20:23.896Z,20.10
2018-06-11T19:22:52.086Z,16.23
2018-06-11T19:25:20.374Z,15.05
2018-06-11T19:27:48.713Z,11.50
2018-06-11T19:30:16.991Z,13.40
2018-06-11T19:32:45.290Z,15.23
2018-06-11T19:35:14.376Z,17.95
2018-06-11T19:37:42.666Z,11.97
2018-06-11T19:40:10.945Z,11.57
2018-06-11T19:42:39.197Z,14.33
2018-06-11T19:45:07.472Z,13.78
2018-06-11T19:47:35.716Z,7.55
2018-06-11T19:50:04.074Z,12.63
2018-06-11T19:52:32.295Z,13.68
2018-06-11T19:55:01.581Z,11.15
2018-06-11T19:57:29.905Z,9.65
2018-06-11T19:59:58.121Z,14.30
2018-06-11T20:02:26.382Z,11.50
2018-06-11T20:04:54.623Z,12.70
2018-06-11T20:07:22.877Z,13.45
2018-06-11T20:09:51.119Z,16.48
2018-06-11T20:12:19.388Z,12.00
2018-06-11T20:14:47.659Z,9.58
2018-06-11T20:17:17.038Z,9.55
2018-06-11T20:19:45.277Z,9.75
2018-06-11T20:22:13.521Z,12.53
2018-06-11T20:24:41.726Z,13.45
2018-06-11T20:27:09.958Z,11.15
2018-06-11T20:29:38.196Z,12.43
2018-06-11T20:32:06.558Z,9.60
2018-06-11T20:34:34.821Z,15.53
2018-06-11T20:37:03.119Z,13.98
2018-06-11T20:39:31.451Z,14.90
2018-06-11T20:41:59.741Z,11.00
2018-06-11T20:44:28.049Z,9.73
2018-06-11T20:46:56.369Z,13.18
2018-06-11T20:49:25.555Z,11.30
2018-06-11T20:51:53.870Z,10.40
2018-06-11T20:54:22.126Z,17.87
2018-06-11T20:56:50.382Z,11.78
2018-06-11T20:59:18.681Z,12.50
2018-06-11T21:01:46.979Z,10.00
2018-06-11T21:04:15.312Z,9.00
2018-06-11T21:06:43.538Z,15.43
2018-06-11T21:09:11.795Z,6.80
2018-06-11T21:11:40.085Z,10.03
2018-06-11T21:14:08.315Z,10.80
2018-06-11T21:16:36.604Z,6.97
2018-06-11T21:19:04.891Z,12.97
2018-06-11T21:21:33.154Z,11.63
2018-06-11T21:24:01.438Z,16.90
2018-06-11T21:26:29.669Z,8.88
2018-06-11T21:28:57.943Z,11.50
2018-06-11T21:31:26.153Z,10.77
2018-06-11T21:33:54.414Z,10.45
2018-06-11T21:36:22.654Z,10.35
2018-06-11T21:38:50.860Z,10.23
2018-06-11T21:41:19.141Z,12.55
2018-06-11T21:43:47.424Z,6.55
2018-06-11T21:46:15.784Z,6.10
2018-06-11T21:48:44.155Z,12.30
2018-06-11T21:51:12.414Z,6.05
2018-06-11T21:53:40.686Z,8.68
2018-06-11T21:56:08.936Z,11.22
2018-06-11T21:58:37.198Z,7.10
2018-06-11T22:01:05.601Z,10.10
2018-06-11T22:03:33.933Z,8.28
2018-06-11T22:06:02.132Z,8.53
2018-06-11T22:08:30.385Z,6.75
2018-06-11T22:10:58.859Z,11.38
2018-06-11T22:13:27.061Z,7.40
2018-06-11T22:15:55.308Z,11.15
2018-06-11T22:18:23.555Z,10.15
2018-06-11T22:20:51.814Z,7.40
2018-06-11T22:23:20.057Z,5.30
2018-06-11T22:25:48.301Z,8.50
2018-06-11T22:28:16.525Z,14.53
2018-06-11T22:30:44.817Z,8.68
2018-06-11T22:33:13.069Z,7.50
2018-06-11T22:35:41.303Z,9.07
2018-06-11T22:38:09.557Z,7.58
2018-06-11T22:40:37.845Z,7.62
2018-06-11T22:43:06.057Z,9.10
2018-06-11T22:45:34.324Z,5.53
2018-06-11T22:48:02.313Z,8.57
2018-06-11T22:50:30.586Z,8.00
2018-06-11T22:52:58.869Z,6.62
2018-06-11T22:55:27.141Z,6.50
2018-06-11T22:57:55.361Z,6.67
2018-06-11T23:00:28.147Z,5.83
2018-06-11T23:02:56.434Z,6.95
2018-06-11T23:05:24.672Z,12.03
2018-06-11T23:07:52.913Z,6.05
2018-06-11T23:10:21.155Z,8.85
2018-06-11T23:12:49.374Z,7.80
2018-06-11T23:15:17.665Z,7.83
2018-06-11T23:17:45.640Z,8.73
2018-06-11T23:20:13.857Z,6.85
2018-06-11T23:22:42.099Z,5.65
2018-06-11T23:25:10.319Z,7.77
2018-06-11T23:27:38.558Z,7.33
2018-06-11T23:30:06.811Z,10.63
2018-06-11T23:32:35.025Z,6.70
2018-06-11T23:35:03.265Z,6.75
2018-06-11T23:37:31.544Z,8.25
2018-06-11T23:39:59.769Z,7.60
2018-06-11T23:42:28.017Z,9.30
2018-06-11T23:44:56.266Z,8.25
2018-06-11T23:47:24.504Z,8.68
2018-06-11T23:49:52.749Z,9.57
2018-06-11T23:52:21.001Z,10.88
2018-06-11T23:54:49.230Z,6.10
2018-06-11T23:57:17.474Z,5.60
2018-06-11T23:59:45.725Z,8.95
